Time;durP1;ratioP1;P1;durP2;ratioP2;P2;SDS_P1;SDS_P2;PMS_P1;PMS_P2;Temp;Humidity;BMP_temperature;BMP_pressure;BME280_temperature;BME280_humidity;BME280_pressure;Samples;Min_cycle;Max_cycle;Signal;HPM_P1;HPM_P2
2023/06/10 00:02:09;;;;;;;4.93;1.92;;;;;;;20.07;100.00;99759.25;5045713;28;20697;-79
2023/06/10 00:04:36;;;;;;;8.95;2.97;;;;;;;19.95;100.00;99758.84;5038830;28;20699;-79
2023/06/10 00:07:08;;;;;;;4.43;1.92;;;;;;;19.98;100.00;99758.72;5044184;28;20234;-79
2023/06/10 00:09:36;;;;;;;8.93;3.28;;;;;;;19.89;100.00;99768.03;5034026;28;20239;-79
2023/06/10 00:12:07;;;;;;;6.82;2.53;;;;;;;19.98;100.00;99766.78;5035226;28;20222;-79
2023/06/10 00:14:36;;;;;;;11.38;3.65;;;;;;;20.09;100.00;99770.78;5034532;28;20245;-79
2023/06/10 00:17:03;;;;;;;5.47;2.25;;;;;;;20.02;100.00;99763.91;5035360;28;20218;-79
2023/06/10 00:19:33;;;;;;;12.45;4.07;;;;;;;19.95;100.00;99759.72;5032212;28;20223;-79
2023/06/10 00:22:00;;;;;;;5.97;2.55;;;;;;;20.06;100.00;99775.41;5036486;28;20226;-79
2023/06/10 00:24:26;;;;;;;8.75;3.85;;;;;;;19.99;100.00;99766.72;5033324;28;20752;-80
2023/06/10 00:26:53;;;;;;;6.18;2.58;;;;;;;19.97;100.00;99768.59;5018660;28;20228;-79
2023/06/10 00:29:20;;;;;;;6.45;2.33;;;;;;;19.90;100.00;99756.34;5034106;28;20242;-79
2023/06/10 00:31:47;;;;;;;6.90;2.55;;;;;;;19.88;100.00;99758.22;5034178;28;20246;-79
2023/06/10 00:34:13;;;;;;;7.70;2.78;;;;;;;19.75;100.00;99755.16;5035489;28;20234;-79
2023/06/10 00:36:40;;;;;;;9.50;3.35;;;;;;;19.72;100.00;99765.13;5033421;28;20282;-79
2023/06/10 00:39:07;;;;;;;7.32;2.60;;;;;;;19.69;100.00;99794.75;5038366;28;20238;-79
2023/06/10 00:41:33;;;;;;;9.88;3.95;;;;;;;19.60;100.00;99800.47;5034479;28;20226;-79
2023/06/10 00:44:00;;;;;;;6.35;2.40;;;;;;;19.62;100.00;99803.97;5038069;28;20242;-79
2023/06/10 00:46:27;;;;;;;6.63;2.53;;;;;;;19.62;100.00;99807.53;4963323;28;20226;-80
2023/06/10 00:48:54;;;;;;;8.20;3.42;;;;;;;19.61;100.00;99816.50;5033438;28;20266;-80
2023/06/10 00:51:21;;;;;;;6.60;2.38;;;;;;;19.68;100.00;99806.44;5032747;28;20227;-79
2023/06/10 00:53:48;;;;;;;7.70;2.47;;;;;;;19.56;100.00;99807.75;5028114;28;20249;-79
2023/06/10 00:56:15;;;;;;;9.90;3.17;;;;;;;19.56;100.00;99812.25;5033663;28;20222;-79
2023/06/10 00:58:42;;;;;;;33.75;6.28;;;;;;;19.64;100.00;99815.53;5024874;28;20794;-79
2023/06/10 01:01:10;;;;;;;7.78;2.97;;;;;;;19.62;100.00;99812.03;5034627;28;20227;-79
2023/06/10 01:03:38;;;;;;;24.92;5.60;;;;;;;19.57;100.00;99814.00;5027503;28;20222;-79
2023/06/10 01:06:18;;;;;;;7.60;3.00;;;;;;;19.48;100.00;99812.47;5019985;28;20230;-79
2023/06/10 01:08:58;;;;;;;10.52;3.50;;;;;;;19.37;100.00;99815.56;5030451;28;20240;-79
2023/06/10 01:11:30;;;;;;;5.25;2.22;;;;;;;19.36;100.00;99823.66;5035889;28;20233;-79
2023/06/10 01:13:58;;;;;;;4.63;2.10;;;;;;;19.36;100.00;99842.41;5035046;28;20230;-79
2023/06/10 01:16:25;;;;;;;5.13;2.15;;;;;;;19.38;100.00;99848.59;5036393;28;20238;-79
2023/06/10 01:18:52;;;;;;;6.88;2.78;;;;;;;19.31;100.00;99842.59;5031886;28;20226;-79
2023/06/10 01:21:26;;;;;;;5.22;2.28;;;;;;;19.40;100.00;99852.09;5032937;28;20250;-79
2023/06/10 01:23:55;;;;;;;5.57;2.50;;;;;;;19.35;100.00;99848.72;5033568;28;20217;-79
2023/06/10 01:26:26;;;;;;;4.90;2.20;;;;;;;19.31;100.00;99853.31;5034431;28;20222;-79
2023/06/10 01:28:58;;;;;;;6.60;2.92;;;;;;;19.28;100.00;99868.63;5031841;28;20245;-79
2023/06/10 01:31:41;;;;;;;4.38;2.00;;;;;;;19.29;100.00;99852.50;5030448;28;20231;-79
2023/06/10 01:34:11;;;;;;;4.45;2.05;;;;;;;19.25;100.00;99852.66;5029322;28;20227;-80
2023/06/10 01:36:38;;;;;;;7.05;2.72;;;;;;;19.15;100.00;99866.38;5032673;28;20226;-79
2023/06/10 01:39:05;;;;;;;4.72;2.33;;;;;;;19.12;100.00;99868.28;5062636;28;20233;-79
2023/06/10 01:41:33;;;;;;;5.40;2.47;;;;;;;19.23;100.00;99881.31;5027901;28;20548;-79
2023/06/10 01:43:59;;;;;;;4.82;2.22;;;;;;;19.23;100.00;99865.25;5042344;28;20296;-79
2023/06/10 01:46:26;;;;;;;5.00;2.28;;;;;;;19.20;100.00;99866.22;5032971;28;20223;-79
2023/06/10 01:48:53;;;;;;;3.88;1.77;;;;;;;19.11;100.00;99874.59;5033788;28;20611;-79
2023/06/10 01:51:20;;;;;;;3.38;1.63;;;;;;;19.17;100.00;99871.69;5032644;28;20237;-79
2023/06/10 01:53:46;;;;;;;5.93;2.75;;;;;;;19.16;100.00;99876.19;5040397;28;20241;-79
2023/06/10 01:56:19;;;;;;;5.88;2.78;;;;;;;19.16;100.00;99877.97;5040051;28;20288;-79
2023/06/10 01:58:46;;;;;;;4.60;2.45;;;;;;;19.14;100.00;99879.84;5030545;28;21234;-79
2023/06/10 02:01:14;;;;;;;5.72;2.50;;;;;;;19.07;100.00;99880.97;5036271;28;20292;-79
2023/06/10 02:03:40;;;;;;;8.73;3.33;;;;;;;18.96;100.00;99881.34;5031031;28;20218;-79
2023/06/10 02:06:07;;;;;;;6.63;3.03;;;;;;;18.82;100.00;99892.53;5034423;28;20261;-79
2023/06/10 02:08:34;;;;;;;9.18;3.42;;;;;;;18.91;100.00;99901.19;5034924;28;20303;-80
2023/06/10 02:11:01;;;;;;;7.03;3.08;;;;;;;18.81;100.00;99897.94;5039207;28;20237;-79
2023/06/10 02:13:27;;;;;;;4.80;2.05;;;;;;;18.80;100.00;99896.19;5038408;28;20226;-79
2023/06/10 02:15:54;;;;;;;5.18;2.25;;;;;;;18.62;100.00;99903.03;5043741;28;20222;-79
2023/06/10 02:18:21;;;;;;;4.13;1.80;;;;;;;18.59;100.00;99904.88;5037963;28;20226;-80
2023/06/10 02:20:48;;;;;;;4.13;1.77;;;;;;;18.65;100.00;99920.78;5041790;28;20694;-79
2023/06/10 02:23:15;;;;;;;6.30;2.55;;;;;;;18.61;100.00;99914.66;5037254;28;20230;-79
2023/06/10 02:25:42;;;;;;;10.40;3.45;;;;;;;18.53;100.00;99925.59;5037210;28;20231;-80
2023/06/10 02:28:08;;;;;;;5.53;2.28;;;;;;;18.43;100.00;99926.78;5045532;28;20235;-79
2023/06/10 02:30:35;;;;;;;6.32;2.58;;;;;;;18.52;100.00;99925.63;5042112;28;20238;-80
2023/06/10 02:33:02;;;;;;;5.00;2.13;;;;;;;18.48;100.00;99926.66;5044427;28;20241;-79
2023/06/10 02:35:28;;;;;;;6.72;2.63;;;;;;;18.41;100.00;99927.75;5034058;28;20623;-79
2023/06/10 02:37:55;;;;;;;5.72;2.45;;;;;;;18.39;100.00;99935.84;5043957;28;20615;-79
2023/06/10 02:40:22;;;;;;;5.85;2.58;;;;;;;18.46;100.00;99948.13;5040664;28;20230;-79
2023/06/10 02:42:49;;;;;;;5.60;2.25;;;;;;;18.36;100.00;99946.66;5043658;28;20705;-79
2023/06/10 02:45:16;;;;;;;4.97;2.15;;;;;;;18.31;100.00;99942.34;5048302;28;20243;-79
2023/06/10 02:47:43;;;;;;;10.25;3.83;;;;;;;18.30;100.00;99951.31;5037290;28;20245;-79
2023/06/10 02:50:09;;;;;;;5.97;2.63;;;;;;;18.34;100.00;99967.22;5039990;28;20265;-79
2023/06/10 02:52:37;;;;;;;7.35;2.97;;;;;;;18.28;100.00;99962.06;5031966;28;20238;-79
2023/06/10 02:55:04;;;;;;;6.78;3.05;;;;;;;18.31;100.00;99972.69;5034707;28;20223;-80
2023/06/10 02:57:31;;;;;;;10.65;4.00;;;;;;;18.19;100.00;99963.19;5037852;28;20272;-80
2023/06/10 02:59:58;;;;;;;7.57;3.20;;;;;;;18.31;100.00;99963.78;5037988;28;20223;-80
2023/06/10 03:02:28;;;;;;;6.45;2.80;;;;;;;18.25;100.00;99948.78;5036206;28;20234;-79
2023/06/10 03:04:58;;;;;;;6.50;2.35;;;;;;;18.21;100.00;99958.69;5039604;28;20226;-79
2023/06/10 03:07:25;;;;;;;5.55;2.33;;;;;;;18.11;100.00;99967.88;5039412;28;20231;-79
2023/06/10 03:09:52;;;;;;;4.93;1.85;;;;;;;18.03;100.00;99979.72;5045586;28;20238;-79
2023/06/10 03:12:19;;;;;;;6.00;2.22;;;;;;;18.11;100.00;99980.38;5047270;28;20255;-79
2023/06/10 03:14:45;;;;;;;6.80;2.58;;;;;;;18.15;100.00;99979.38;5036126;28;20242;-79
2023/06/10 03:17:12;;;;;;;5.97;2.47;;;;;;;18.08;100.00;99980.47;5045750;28;20230;-79
2023/06/10 03:19:39;;;;;;;27.92;7.78;;;;;;;18.11;100.00;99978.59;5056222;22;20239;-83
2023/06/10 03:22:10;;;;;;;5.97;2.85;;;;;;;18.08;100.00;99977.81;5003470;28;20224;-85
2023/06/10 03:24:39;;;;;;;23.15;6.40;;;;;;;18.09;100.00;99980.44;4995402;28;20227;-85
2023/06/10 03:27:08;;;;;;;5.40;2.38;;;;;;;18.05;100.00;99977.88;4994659;28;20294;-85
2023/06/10 03:29:35;;;;;;;23.38;6.28;;;;;;;18.09;100.00;99974.19;4998519;28;20234;-85
2023/06/10 03:32:02;;;;;;;5.60;2.40;;;;;;;17.97;100.00;99986.13;5005405;28;20233;-84
2023/06/10 03:34:32;;;;;;;15.43;5.15;;;;;;;18.05;100.00;99991.25;4999366;28;20708;-83
2023/06/10 03:36:59;;;;;;;4.13;1.80;;;;;;;18.05;100.00;99993.94;4997089;28;20235;-83
2023/06/10 03:39:28;;;;;;;5.35;2.22;;;;;;;17.96;100.00;99997.75;4998741;28;20261;-84
2023/06/10 03:41:57;;;;;;;5.00;2.20;;;;;;;17.96;100.00;100000.44;4999829;28;20227;-82
2023/06/10 03:44:27;;;;;;;8.43;3.42;;;;;;;17.99;100.00;99991.44;5000441;28;20296;-83
2023/06/10 03:46:56;;;;;;;4.35;1.92;;;;;;;17.93;100.00;99995.16;4997829;28;20779;-83
2023/06/10 03:49:26;;;;;;;2.80;1.23;;;;;;;18.00;100.00;100010.13;5001588;28;20235;-84
2023/06/10 03:51:53;;;;;;;4.65;2.10;;;;;;;17.94;100.00;100006.75;4998017;28;20323;-83
2023/06/10 03:54:20;;;;;;;7.95;3.22;;;;;;;17.99;100.00;100007.50;4995662;28;20250;-83
2023/06/10 03:56:48;;;;;;;5.65;2.55;;;;;;;17.97;100.00;100012.88;5005377;28;20246;-84
2023/06/10 03:59:14;;;;;;;4.95;2.17;;;;;;;17.92;100.00;100012.13;5009543;28;20231;-83
2023/06/10 04:01:41;;;;;;;22.48;5.45;;;;;;;17.98;100.00;100019.13;4997383;28;20697;-83
2023/06/10 04:04:08;;;;;;;3.95;2.00;;;;;;;18.01;100.00;100019.03;4988665;28;20227;-83
2023/06/10 04:06:35;;;;;;;25.17;6.45;;;;;;;18.01;100.00;100019.03;4981473;28;20231;-83
2023/06/10 04:09:03;;;;;;;4.22;2.10;;;;;;;18.04;100.00;100013.59;5010839;28;20247;-83
2023/06/10 04:11:29;;;;;;;11.98;3.90;;;;;;;18.02;100.00;100016.31;5004387;28;20215;-83
2023/06/10 04:13:56;;;;;;;7.50;3.40;;;;;;;18.08;100.00;100020.59;5000002;28;20243;-83
2023/06/10 04:16:23;;;;;;;3.90;1.80;;;;;;;18.14;100.00;100015.97;4996686;28;20229;-83
2023/06/10 04:18:49;;;;;;;6.25;2.75;;;;;;;18.11;100.00;100021.41;4977561;28;20298;-84
2023/06/10 04:21:16;;;;;;;6.13;2.55;;;;;;;18.17;100.00;100036.41;4999071;28;20224;-82
2023/06/10 04:23:44;;;;;;;24.42;6.13;;;;;;;18.11;100.00;100031.22;4993758;28;20227;-82
2023/06/10 04:26:12;;;;;;;5.38;2.30;;;;;;;18.25;100.00;100026.41;4996177;28;20243;-83
2023/06/10 04:28:39;;;;;;;25.00;6.15;;;;;;;18.29;100.00;100027.19;4996673;28;20235;-83
2023/06/10 04:31:05;;;;;;;5.00;2.10;;;;;;;18.32;100.00;100035.13;5000341;28;20230;-84
2023/06/10 04:33:32;;;;;;;23.10;6.35;;;;;;;18.30;100.00;100032.50;4994535;28;20240;-83
2023/06/10 04:35:59;;;;;;;4.88;2.10;;;;;;;18.33;100.00;100042.22;4998287;28;20227;-85
2023/06/10 04:38:26;;;;;;;5.93;2.38;;;;;;;18.30;100.00;100051.22;4998513;28;20235;-85
2023/06/10 04:40:53;;;;;;;8.63;3.20;;;;;;;18.28;100.00;100058.44;5001573;28;20228;-83
2023/06/10 04:43:20;;;;;;;8.20;3.30;;;;;;;18.32;100.00;100062.78;5004511;28;20227;-82
2023/06/10 04:45:47;;;;;;;6.95;2.63;;;;;;;18.34;100.00;100073.44;4998162;28;20265;-82
2023/06/10 04:48:14;;;;;;;6.90;2.70;;;;;;;18.37;100.00;100071.53;4993861;28;20265;-82
2023/06/10 04:50:40;;;;;;;30.30;6.97;;;;;;;18.40;100.00;100081.28;4992492;28;20231;-83
2023/06/10 04:53:08;;;;;;;7.15;3.05;;;;;;;18.42;100.00;100092.84;4999055;28;20231;-83
2023/06/10 04:55:36;;;;;;;30.40;7.93;;;;;;;18.48;100.00;100093.53;4994435;28;20275;-83
2023/06/10 04:58:02;;;;;;;12.43;4.53;;;;;;;18.49;100.00;100103.31;5001046;28;20240;-84
2023/06/10 05:00:29;;;;;;;20.83;6.05;;;;;;;18.58;100.00;100110.22;4994569;28;20339;-86
2023/06/10 05:02:56;;;;;;;7.47;3.00;;;;;;;18.65;100.00;100110.94;4995580;28;20642;-84
2023/06/10 05:05:23;;;;;;;6.57;2.63;;;;;;;18.70;100.00;100125.09;5013520;28;20219;-84
2023/06/10 05:07:50;;;;;;;6.10;2.78;;;;;;;18.77;100.00;100132.91;5008388;28;20252;-83
2023/06/10 05:10:17;;;;;;;8.73;3.42;;;;;;;18.88;100.00;100137.06;5009832;28;20242;-84
2023/06/10 05:12:44;;;;;;;31.40;7.32;;;;;;;18.93;100.00;100136.00;5007157;28;20218;-84
2023/06/10 05:15:10;;;;;;;10.38;3.72;;;;;;;19.05;100.00;100132.94;4998196;28;20228;-83
2023/06/10 05:17:38;;;;;;;37.15;8.45;;;;;;;19.10;100.00;100135.50;4995896;28;20229;-84
2023/06/10 05:20:06;;;;;;;6.07;2.40;;;;;;;19.15;100.00;100137.09;4996691;28;20226;-83
2023/06/10 05:22:34;;;;;;;27.00;7.20;;;;;;;19.26;100.00;100138.56;4983412;28;20250;-83
2023/06/10 05:25:01;;;;;;;5.05;2.08;;;;;;;19.37;100.00;100128.38;5009991;28;20234;-87
2023/06/10 05:27:27;;;;;;;6.03;2.28;;;;;;;19.41;100.00;100130.94;5008829;28;20219;-88
2023/06/10 05:29:54;;;;;;;7.20;2.65;;;;;;;19.48;100.00;100120.88;5007294;28;20236;-84
2023/06/10 05:32:21;;;;;;;4.88;2.08;;;;;;;19.64;100.00;100115.97;5008689;28;20221;-84
2023/06/10 05:34:48;;;;;;;5.07;2.38;;;;;;;19.73;100.00;100107.59;5006245;28;20235;-84
2023/06/10 05:37:14;;;;;;;4.22;1.95;;;;;;;19.75;100.00;100101.25;5010496;28;20244;-83
2023/06/10 05:39:41;;;;;;;24.75;6.68;;;;;;;19.88;100.00;100098.16;5009141;28;20230;-82
2023/06/10 05:42:08;;;;;;;4.82;2.42;;;;;;;19.95;100.00;100105.94;5013386;28;20227;-80
2023/06/10 05:44:35;;;;;;;18.17;5.57;;;;;;;19.95;100.00;100097.00;5005989;28;20230;-84
2023/06/10 05:47:02;;;;;;;5.47;2.28;;;;;;;20.08;100.00;100090.28;5013263;28;20220;-83
2023/06/10 05:49:29;;;;;;;11.55;3.40;;;;;;;20.14;100.00;100093.63;5010406;28;20322;-83
2023/06/10 05:51:58;;;;;;;4.95;2.17;;;;;;;20.17;100.00;100071.16;5012886;28;20230;-83
2023/06/10 05:54:26;;;;;;;7.18;2.90;;;;;;;20.21;100.00;100074.63;5014049;28;20216;-82
2023/06/10 05:56:55;;;;;;;5.80;2.60;;;;;;;20.33;100.00;100074.16;5013502;28;20269;-82
2023/06/10 05:59:22;;;;;;;4.75;2.13;;;;;;;20.24;100.00;100069.13;4981111;28;20249;-82
2023/06/10 06:01:50;;;;;;;4.63;2.15;;;;;;;20.48;100.00;100091.56;5011902;28;20243;-81
2023/06/10 06:04:16;;;;;;;6.10;2.75;;;;;;;20.50;100.00;100100.44;5016328;28;20270;-83
2023/06/10 06:06:43;;;;;;;28.75;7.43;;;;;;;20.45;100.00;100074.63;5013212;28;20248;-83
2023/06/10 06:09:10;;;;;;;3.72;1.92;;;;;;;20.66;100.00;100072.06;5010084;28;20259;-83
2023/06/10 06:11:37;;;;;;;16.77;4.43;;;;;;;20.78;100.00;100066.22;5002100;28;20680;-82
2023/06/10 06:14:03;;;;;;;5.47;2.22;;;;;;;20.90;100.00;100063.09;5007819;28;20278;-83
2023/06/10 06:16:30;;;;;;;19.75;5.53;;;;;;;21.11;100.00;100061.34;4991034;28;20224;-85
2023/06/10 06:18:57;;;;;;;5.38;2.25;;;;;;;21.09;100.00;100045.28;5004051;28;20236;-83
2023/06/10 06:21:24;;;;;;;4.65;2.30;;;;;;;21.15;100.00;100025.34;4988098;28;20231;-82
2023/06/10 06:23:51;;;;;;;5.10;2.20;;;;;;;21.33;100.00;100027.31;5001819;28;20585;-82
2023/06/10 06:26:18;;;;;;;4.22;1.88;;;;;;;21.33;100.00;100039.88;4998374;28;20228;-84
2023/06/10 06:28:45;;;;;;;33.17;7.03;;;;;;;21.56;100.00;100041.59;5008250;28;20232;-80
2023/06/10 06:31:12;;;;;;;4.82;2.25;;;;;;;21.39;100.00;99997.47;5009945;28;20829;-83
2023/06/10 06:33:38;;;;;;;28.83;7.15;;;;;;;21.52;100.00;99983.47;4981166;28;20224;-81
2023/06/10 06:36:05;;;;;;;5.00;2.20;;;;;;;21.72;100.00;100008.59;4997761;28;20250;-81
2023/06/10 06:38:32;;;;;;;17.33;5.13;;;;;;;21.89;100.00;99998.91;4986566;28;20228;-81
2023/06/10 06:41:02;;;;;;;8.13;3.08;;;;;;;21.86;100.00;99964.03;4997356;28;20231;-81
2023/06/10 06:43:33;;;;;;;14.30;3.92;;;;;;;22.02;100.00;99970.47;4999525;28;20318;-82
2023/06/10 06:45:59;;;;;;;7.03;2.88;;;;;;;21.89;100.00;99929.78;5007170;28;20235;-82
2023/06/10 06:48:26;;;;;;;8.07;2.95;;;;;;;22.08;100.00;99934.34;5004755;28;20235;-82
2023/06/10 06:50:53;;;;;;;6.95;3.33;;;;;;;22.22;100.00;99905.00;4993788;28;20235;-80
2023/06/10 06:53:20;;;;;;;5.88;2.45;;;;;;;22.49;100.00;99933.31;5010527;28;20230;-82
2023/06/10 06:55:47;;;;;;;5.68;2.47;;;;;;;22.67;100.00;99929.72;5003530;28;20274;-81
2023/06/10 06:58:14;;;;;;;5.00;2.20;;;;;;;23.08;100.00;99918.75;5003761;28;20223;-80
2023/06/10 07:00:40;;;;;;;22.58;6.25;;;;;;;22.91;100.00;99908.81;4999565;28;20239;-80
2023/06/10 07:03:07;;;;;;;3.85;1.92;;;;;;;22.95;100.00;99905.00;5007286;28;20285;-81
2023/06/10 07:05:34;;;;;;;19.92;5.78;;;;;;;23.00;100.00;99894.00;4993032;28;20231;-80
2023/06/10 07:08:01;;;;;;;10.32;4.38;;;;;;;22.89;100.00;99820.88;4980869;28;20639;-83
2023/06/10 07:10:28;;;;;;;10.15;3.63;;;;;;;23.24;100.00;99835.22;4994355;28;20243;-81
2023/06/10 07:12:55;;;;;;;6.50;2.85;;;;;;;23.60;100.00;99856.75;5004095;28;20235;-84
2023/06/10 07:15:22;;;;;;;6.07;2.63;;;;;;;23.35;100.00;99773.47;5014031;28;20235;-82
2023/06/10 07:17:49;;;;;;;5.97;2.25;;;;;;;23.50;100.00;99786.16;4999691;28;20265;-82
2023/06/10 07:20:16;;;;;;;4.03;1.58;;;;;;;23.99;100.00;99788.88;5012098;28;20230;-82
2023/06/10 07:22:42;;;;;;;16.90;5.60;;;;;;;24.02;100.00;99809.44;4996977;28;20320;-81
2023/06/10 07:25:09;;;;;;;6.28;2.65;;;;;;;24.12;100.00;99784.53;5010737;28;20232;-82
2023/06/10 07:27:37;;;;;;;19.98;5.20;;;;;;;24.63;100.00;99778.91;4985699;28;20231;-81
2023/06/10 07:30:07;;;;;;;5.22;2.03;;;;;;;24.21;100.00;99673.22;5010071;28;20238;-80
2023/06/10 07:32:35;;;;;;;33.08;7.07;;;;;;;24.67;100.00;99700.22;4992550;28;20276;-81
2023/06/10 07:35:03;;;;;;;7.20;2.42;;;;;;;24.62;100.00;99688.81;4993045;28;20235;-81
2023/06/10 07:37:29;;;;;;;16.17;4.47;;;;;;;24.74;100.00;99649.38;4998079;28;20219;-81
2023/06/10 07:39:56;;;;;;;5.78;2.30;;;;;;;24.70;100.00;99600.00;5008701;28;20230;-81
2023/06/10 07:42:23;;;;;;;4.43;1.90;;;;;;;25.15;100.00;99614.34;5007218;28;20227;-81
2023/06/10 07:44:50;;;;;;;7.22;2.90;;;;;;;25.56;100.00;99581.03;4997570;28;20253;-81
2023/06/10 07:47:17;;;;;;;4.88;2.00;;;;;;;25.41;100.00;99526.94;5002488;28;20258;-78
2023/06/10 07:49:43;;;;;;;22.35;5.93;;;;;;;25.43;96.09;99468.16;4996079;28;20692;-78
2023/06/10 07:52:10;;;;;;;5.60;2.22;;;;;;;25.23;96.19;99424.44;5004265;28;20322;-79
2023/06/10 07:54:37;;;;;;;12.82;4.25;;;;;;;25.40;100.00;99478.31;5003799;28;20223;-79
2023/06/10 07:57:04;;;;;;;5.57;2.15;;;;;;;25.73;96.31;99461.66;5005645;28;20683;-81
2023/06/10 07:59:31;;;;;;;13.48;4.55;;;;;;;25.22;97.16;99396.53;4982532;28;20231;-79
2023/06/10 08:01:58;;;;;;;9.45;3.47;;;;;;;25.61;95.65;99419.13;4997994;28;20703;-82
2023/06/10 08:04:25;;;;;;;9.90;3.83;;;;;;;25.82;100.00;99475.44;5006441;28;20289;-79
2023/06/10 08:06:51;;;;;;;8.60;3.08;;;;;;;25.64;94.33;99371.06;4998244;28;20715;-80
2023/06/10 08:09:18;;;;;;;6.88;2.30;;;;;;;26.20;97.20;99444.81;5002957;28;20245;-80
2023/06/10 08:11:46;;;;;;;16.90;5.20;;;;;;;25.59;92.42;99318.19;5002841;28;20247;-81
2023/06/10 08:14:13;;;;;;;12.18;4.18;;;;;;;25.92;94.95;99380.84;5000554;28;20231;-81
2023/06/10 08:16:40;;;;;;;13.82;4.50;;;;;;;26.51;91.87;99388.41;4994233;28;20599;-82
2023/06/10 08:19:09;;;;;;;6.63;2.97;;;;;;;26.50;90.19;99344.19;4987178;28;20231;-80
2023/06/10 08:21:37;;;;;;;17.90;5.32;;;;;;;27.09;86.51;99336.13;4992133;28;20251;-80
2023/06/10 08:24:04;;;;;;;7.63;2.83;;;;;;;28.30;89.75;99450.72;4992621;28;20234;-80
2023/06/10 08:26:31;;;;;;;17.25;4.80;;;;;;;27.38;81.28;99219.91;4994152;28;20254;-81
2023/06/10 08:28:58;;;;;;;5.30;2.42;;;;;;;26.56;85.69;99169.31;5006014;28;20227;-82
2023/06/10 08:31:25;;;;;;;6.45;2.60;;;;;;;26.68;84.80;99168.38;5003825;28;20227;-81
2023/06/10 08:33:51;;;;;;;4.95;2.03;;;;;;;27.21;87.09;99240.19;5002808;28;20255;-81
2023/06/10 08:36:18;;;;;;;5.50;2.28;;;;;;;26.88;88.09;99208.38;4992974;28;20254;-81
2023/06/10 08:38:45;;;;;;;15.88;4.55;;;;;;;27.69;84.73;99251.78;4973346;28;20226;-83
2023/06/10 08:41:14;;;;;;;6.28;2.35;;;;;;;27.70;83.79;99217.34;4985099;28;20761;-80
2023/06/10 08:43:52;;;;;;;28.52;7.03;;;;;;;27.11;83.83;99138.78;4976854;28;20250;-82
2023/06/10 08:46:20;;;;;;;6.15;2.55;;;;;;;27.84;85.62;99229.81;4971875;28;20321;-81
2023/06/10 08:48:48;;;;;;;5.82;2.22;;;;;;;28.18;83.79;99220.63;4997696;28;20247;-80
2023/06/10 08:51:16;;;;;;;3.38;1.45;;;;;;;27.57;80.61;99086.22;5003599;28;20234;-80
2023/06/10 08:53:50;;;;;;;23.70;5.43;;;;;;;27.14;82.72;99077.97;4986866;28;20231;-80
2023/06/10 08:56:17;;;;;;;3.70;1.85;;;;;;;27.44;84.11;99108.09;4974233;28;20223;-80
2023/06/10 08:58:44;;;;;;;13.27;4.30;;;;;;;28.00;81.66;99136.03;4980993;28;20242;-81
2023/06/10 09:01:12;;;;;;;3.25;1.65;;;;;;;29.54;78.00;99231.69;4968312;28;20353;-80
2023/06/10 09:03:40;;;;;;;17.02;4.88;;;;;;;28.46;72.36;98979.91;5001113;28;20234;-80
2023/06/10 09:06:07;;;;;;;6.30;2.33;;;;;;;28.28;77.86;99041.31;4989585;28;20269;-82
2023/06/10 09:08:35;;;;;;;11.77;3.70;;;;;;;29.33;76.88;99132.78;4994133;28;20239;-80
2023/06/10 09:11:02;;;;;;;11.73;4.07;;;;;;;28.44;75.23;98979.19;4985930;28;20270;-81
2023/06/10 09:13:29;;;;;;;5.93;2.53;;;;;;;28.39;80.20;99041.25;4999788;28;20738;-81
2023/06/10 09:16:00;;;;;;;2.72;1.25;;;;;;;28.43;76.58;98999.22;4980656;28;20228;-82
2023/06/10 09:18:28;;;;;;;5.05;1.80;;;;;;;28.39;77.42;99005.91;4987112;28;20226;-81
2023/06/10 09:20:55;;;;;;;4.97;2.05;;;;;;;27.86;73.64;98872.81;5000682;28;20235;-80
2023/06/10 09:23:22;;;;;;;9.70;3.20;;;;;;;29.14;75.24;99030.09;5004177;28;20308;-81
2023/06/10 09:25:57;;;;;;;9.50;2.65;;;;;;;28.65;70.25;98865.78;4996604;28;20242;-81
2023/06/10 09:28:24;;;;;;;7.82;2.95;;;;;;;28.37;75.76;98901.88;4977185;28;20223;-80
2023/06/10 09:31:02;;;;;;;5.80;2.08;;;;;;;28.68;77.69;98968.03;4998772;28;20237;-82
2023/06/10 09:33:30;;;;;;;14.70;3.85;;;;;;;28.95;74.91;98951.13;4994240;28;20215;-82
2023/06/10 09:36:00;;;;;;;5.60;1.90;;;;;;;28.86;73.95;98922.00;5002047;28;20232;-82
2023/06/10 09:38:32;;;;;;;6.20;2.15;;;;;;;29.61;68.61;98941.38;4989413;28;20227;-82
2023/06/10 09:41:01;;;;;;;5.85;2.28;;;;;;;28.94;72.63;98884.09;5026747;23;20231;-79
2023/06/10 09:43:44;;;;;;;4.63;1.75;;;;;;;28.61;72.15;98833.56;4994635;28;20715;-79
2023/06/10 09:46:18;;;;;;;5.18;2.20;;;;;;;28.61;69.10;98799.06;4998232;28;20235;-80
2023/06/10 09:48:46;;;;;;;10.05;3.30;;;;;;;29.43;70.80;98918.56;4979734;28;20255;-79
2023/06/10 09:51:14;;;;;;;4.30;1.75;;;;;;;30.50;69.81;99004.75;4983660;28;20231;-79
2023/06/10 09:53:41;;;;;;;8.15;2.72;;;;;;;30.22;64.35;98839.34;4984782;28;20712;-79
2023/06/10 09:56:08;;;;;;;6.03;2.10;;;;;;;29.87;66.98;98809.97;4995394;28;20247;-77
2023/06/10 09:58:43;;;;;;;10.50;3.42;;;;;;;29.53;70.95;98818.66;4987224;28;20255;-79
2023/06/10 10:01:11;;;;;;;6.90;2.28;;;;;;;29.38;72.85;98820.06;4978701;28;20670;-79
2023/06/10 10:03:47;;;;;;;11.90;2.85;;;;;;;29.69;70.61;98823.50;4978022;28;20215;-79
2023/06/10 10:06:15;;;;;;;7.82;2.10;;;;;;;29.83;65.48;98764.97;4981929;28;20239;-79
2023/06/10 10:08:43;;;;;;;8.30;2.58;;;;;;;30.01;65.09;98765.06;4976993;28;20315;-79
2023/06/10 10:11:10;;;;;;;14.60;4.57;;;;;;;30.69;65.88;98847.47;4974534;28;20240;-80
2023/06/10 10:13:38;;;;;;;15.57;3.92;;;;;;;30.50;66.72;98815.66;4984380;28;20223;-80
2023/06/10 10:16:11;;;;;;;8.02;2.50;;;;;;;30.66;63.96;98776.84;4979832;28;20231;-80
2023/06/10 10:18:49;;;;;;;16.85;4.00;;;;;;;30.06;63.41;98689.19;4975153;28;20596;-80
2023/06/10 10:21:22;;;;;;;10.77;2.67;;;;;;;30.41;65.08;98753.84;4970080;28;20235;-80
2023/06/10 10:23:55;;;;;;;8.50;2.30;;;;;;;30.30;69.04;98779.44;4986323;28;20235;-80
2023/06/10 10:26:23;;;;;;;10.07;2.40;;;;;;;30.19;66.41;98736.03;4986593;28;20227;-80
2023/06/10 10:29:28;;;;;;;13.23;2.88;;;;;;;30.95;65.41;98803.91;4971212;28;20239;-80
2023/06/10 10:31:56;;;;;;;12.57;3.05;;;;;;;30.69;65.31;98769.19;4982580;28;20236;-80
2023/06/10 10:34:37;;;;;;;18.02;4.30;;;;;;;30.31;67.73;98734.81;4971754;28;20222;-80
2023/06/10 10:39:39;;;;;;;23.77;6.15;;;;;;;30.95;65.02;98777.47;5279756;23;20218;-81
2023/06/10 10:42:09;;;;;;;5.97;2.33;;;;;;;29.89;67.79;98666.25;5041136;28;20221;-81
2023/06/10 10:44:39;;;;;;;18.95;4.80;;;;;;;29.71;65.25;98613.59;5037186;28;20280;-82
2023/06/10 10:47:10;;;;;;;9.48;2.92;;;;;;;30.15;68.45;98720.97;5040374;28;20278;-80
2023/06/10 10:49:38;;;;;;;18.90;5.07;;;;;;;30.79;67.59;98785.50;5028749;28;20269;-79
2023/06/10 10:52:10;;;;;;;7.55;2.10;;;;;;;30.98;62.05;98716.25;5011664;28;20240;-79
2023/06/10 10:54:39;;;;;;;16.80;4.53;;;;;;;31.03;61.07;98700.25;5031370;28;20249;-80
2023/06/10 10:57:12;;;;;;;16.55;4.47;;;;;;;31.46;59.91;98702.19;5028738;28;20269;-80
2023/06/10 10:59:45;;;;;;;22.52;5.15;;;;;;;31.83;63.20;98767.50;5024093;28;20235;-80
2023/06/10 11:02:17;;;;;;;6.25;1.65;;;;;;;30.74;60.70;98580.44;5026616;28;20321;-79
2023/06/10 11:04:47;;;;;;;18.88;4.95;;;;;;;30.66;64.72;98634.97;5017871;28;20254;-80
2023/06/10 11:07:20;;;;;;;9.27;2.40;;;;;;;31.07;59.62;98614.28;5032375;28;20249;-80
2023/06/10 11:10:17;;;;;;;7.40;2.25;;;;;;;30.90;60.56;98591.50;5014588;28;20241;-79
2023/06/10 11:12:46;;;;;;;20.45;4.90;;;;;;;31.13;58.77;98565.38;5002525;28;20287;-79
2023/06/10 11:15:16;;;;;;;9.10;2.63;;;;;;;31.69;59.09;98617.78;5019340;28;20225;-81
2023/06/10 11:18:12;;;;;;;16.98;3.97;;;;;;;31.67;62.03;98658.06;5018569;28;20233;-80
2023/06/10 11:20:55;;;;;;;20.73;5.10;;;;;;;32.13;55.94;98613.84;5013449;28;20230;-80
2023/06/10 11:23:28;;;;;;;15.05;3.80;;;;;;;31.99;57.08;98592.63;5020843;28;20237;-81
2023/06/10 11:26:35;;;;;;;17.77;4.70;;;;;;;32.44;54.87;98592.22;5015966;28;20221;-81
2023/06/10 11:29:08;;;;;;;10.60;2.78;;;;;;;31.54;51.26;98355.25;4920896;28;20241;-79
2023/06/10 11:31:47;;;;;;;18.13;4.68;;;;;;;32.01;54.16;98472.16;4917561;29;20238;-81
2023/06/10 11:34:14;;;;;;;13.68;3.58;;;;;;;32.44;52.95;98498.34;4958464;28;20237;-81